< < Back
Terminal Aerodrome Forecast


Current Version              Previous Versions:   1  2  3  4  5  6  7  8  9  

Terminal Aerodrome Forecast

278
FTUS42 KFFC 232300
TAFFTY
TAF
KFTY 232335Z 2400/2424 32007KT P6SM SKC
     FM240200 00000KT P6SM SKC
     FM241400 10006KT P6SM SKC
     FM241800 16008KT P6SM FEW040
     FM242100 16007KT P6SM SCT060=



Latest METAR

265
SAUS70 KWBC 241800 RRB
MTRFTY
METAR KFTY 241753Z AUTO VRB03KT 10SM CLR 24/07 A2999 RMK AO2 SLP151
T02390067 10244 20072 58023 TSNO


USA.gov is the U.S. government's official web portal to all federal, state and local government web resources and services.